Data for 06/28/2015

Time Sea-Level Adjusted Pressure Absolute Pressure Temperature Relative Humidity Dew Point   
(mb) (inHg) (mb) (inHg) (C) (F) (%) (C) (F)
00:05 1022 30.18 851 25.13 22.4 72.3 36 6.8 44.2
00:10 1022 30.18 851 25.13 22 71.7 38 7.3 45.1
00:15 1022 30.18 851 25.13 21.5 70.8 39 7 44.6
00:20 1022 30.18 851 25.13 21.5 70.7 39 7 44.6
00:25 1022 30.18 851 25.13 21.3 70.3 38 6.7 44.1
00:30 1022 30.18 851 25.13 21.3 70.3 37 6.4 43.5
00:35 1022 30.18 851 25.13 21.6 70.8 36 6 42.7
00:40 1022 30.18 851 25.13 21.7 71 36 6.3 43.3
00:45 1022 30.18 851 25.13 21.5 70.7 36 6 42.8
00:50 1022 30.18 851 25.13 21.2 70.1 37 6.1 42.9
00:55 1022 30.18 851 25.13 21.1 69.9 36 5.7 42.3
01:00 1022 30.18 851 25.13 21.1 69.9 37 6.1 42.9
01:05 1022 30.18 851 25.13 20.9 69.7 37 5.9 42.5
01:10 1022 30.18 851 25.13 20.7 69.3 38 6 42.8
01:15 1022 30.18 851 25.13 20.7 69.2 37 5.7 42.2
01:20 1022 30.18 851 25.13 21.1 69.9 35 5.2 41.4
01:25 1022 30.18 851 25.13 21.4 70.5 38 6.8 44.2
01:30 1022 30.18 851 25.13 21 69.7 38 6.4 43.6
01:35 1022 30.18 851 25.13 20.3 68.6 39 6.2 43.2
01:40 1022 30.18 851 25.13 20.2 68.4 39 5.8 42.5
01:45 1022 30.18 851 25.13 20.5 68.9 38 5.7 42.3
01:50 1022 30.18 851 25.13 20.7 69.3 37 5.8 42.4
01:55 1022 30.18 851 25.13 20.7 69.3 38 5.9 42.7
02:00 1022 30.18 851 25.13 20.6 69.1 38 6 42.9
02:05 1022 30.18 851 25.13 20.4 68.7 39 6.2 43.2
02:10 1022 30.18 851 25.13 20.1 68.2 40 6.4 43.6
02:15 1022 30.18 851 25.13 19.9 67.8 41 6.2 43.2
02:20 1022 30.18 851 25.13 19.9 67.8 40 6.1 42.9
02:25 1022 30.18 851 25.13 19.8 67.6 41 6.2 43.2
02:30 1022 30.18 851 25.13 19.6 67.2 40 5.8 42.5
02:35 1022 30.18 851 25.13 19.7 67.4 40 5.9 42.6
02:40 1022 30.18 851 25.13 19.8 67.6 39 5.5 41.9
02:45 1022 30.18 851 25.13 20 68 38 5.4 41.8
02:50 1022 30.18 851 25.13 20.1 68.1 39 5.7 42.3
02:55 1022 30.18 851 25.13 20 68 39 5.8 42.4
03:00 1022 30.18 851 25.13 20 67.9 39 5.8 42.5
03:05 1022 30.18 851 25.13 19.8 67.7 39 5.8 42.4
03:10 1022 30.18 851 25.13 19.7 67.5 41 6.1 43.1
03:15 1022 30.18 851 25.13 19.9 67.8 39 5.6 42.2
03:20 1022 30.18 851 25.13 19.9 67.8 39 5.8 42.4
03:25 1022 30.18 851 25.13 19.8 67.7 40 5.9 42.7
03:30 1022 30.18 851 25.13 19.8 67.6 39 5.7 42.3
03:35 1022 30.18 851 25.13 19.7 67.5 41 6.3 43.3
03:40 1022 30.18 851 25.13 19.7 67.4 41 6 42.9
03:45 1022 30.18 851 25.13 19.4 66.9 41 5.9 42.6
03:50 1022 30.18 851 25.13 19.2 66.6 41 5.8 42.4
03:55 1022 30.18 851 25.13 19.2 66.5 41 5.6 42.2
04:00 1022 30.18 851 25.13 19.2 66.6 40 5.6 42.1
04:05 1022 30.18 851 25.13 19.2 66.6 43 6.3 43.4
04:10 1022 30.18 851 25.13 19.2 66.5 40 5.5 41.9
04:15 1022 30.18 851 25.13 19.2 66.5 42 6 42.8
04:20 1022 30.18 851 25.13 19.4 66.9 40 5.7 42.3
04:25 1022 30.18 851 25.13 19.6 67.3 41 6.2 43.1
04:30 1022 30.18 851 25.13 19.4 66.9 41 5.9 42.7
04:35 1022 30.18 851 25.13 18.7 65.7 44 6.3 43.3
04:40 1022 30.18 851 25.13 18.2 64.8 43 5.6 42.1
04:45 1022 30.18 851 25.13 18.4 65 43 5.8 42.4
04:50 1022 30.18 852 25.16 18.4 65 44 6 42.8
04:55 1022 30.18 852 25.16 18.3 64.9 44 5.8 42.5
05:00 1022 30.18 852 25.16 18.2 64.7 45 6.3 43.3
05:05 1022 30.18 852 25.16 17.8 64 46 6.2 43.1
05:10 1022 30.18 852 25.16 17.8 64 48 6.9 44.4
05:15 1022 30.18 852 25.16 17.6 63.6 48 6.6 43.9
05:20 1023 30.21 852 25.16 17.4 63.3 48 6.3 43.4
05:25 1023 30.21 852 25.16 17.6 63.6 47 6.2 43.2
05:30 1023 30.21 852 25.16 17.8 64 47 6.3 43.3
05:35 1023 30.21 852 25.16 18 64.5 45 6.2 43.1
05:40 1023 30.21 852 25.16 18.4 65 48 7.2 45
05:45 1023 30.21 852 25.16 18.4 65.2 47 7.1 44.8
05:50 1023 30.21 852 25.16 18.5 65.4 45 6.5 43.6
05:55 1023 30.21 852 25.16 18.3 64.9 46 6.6 43.8
06:00 1023 30.21 852 25.16 18.2 64.7 46 6.6 43.8
06:05 1023 30.21 852 25.16 18.3 64.9 47 6.7 44.1
06:10 1023 30.21 852 25.16 18.5 65.3 45 6.4 43.5
06:15 1023 30.21 852 25.16 18.9 66.1 43 6.4 43.5
06:20 1023 30.21 852 25.16 19.3 66.8 44 6.9 44.4
06:25 1023 30.21 852 25.16 19.8 67.6 42 6.7 44
06:30 1023 30.21 852 25.16 20.1 68.2 41 6.7 44.1
06:35 1023 30.21 852 25.16 20.4 68.8 41 6.9 44.4
06:40 1023 30.21 852 25.16 20.7 69.2 40 6.8 44.2
06:45 1023 30.21 852 25.16 20.9 69.6 40 7.1 44.7
06:50 1023 30.21 852 25.16 21.5 70.6 40 7.6 45.7
06:55 1023 30.21 852 25.16 21.5 70.6 40 7.6 45.7
07:00 1023 30.21 852 25.16 21.4 70.5 40 7.4 45.3
07:05 1023 30.21 853 25.19 21.5 70.7 41 7.8 46
07:10 1023 30.21 853 25.19 22.4 72.3 40 8.2 46.7
07:15 1023 30.21 853 25.19 22.8 73.1 40 8.5 47.4
07:20 1023 30.21 853 25.19 22.9 73.2 37 7.8 46.1
07:25 1023 30.21 853 25.19 23.8 74.8 36 8.1 46.6
07:30 1023 30.21 853 25.19 23.5 74.3 38 8.5 47.4
07:35 1023 30.21 853 25.19 23.5 74.2 37 8.2 46.8
07:40 1024 30.24 853 25.19 23.4 74.1 37 8.2 46.7
07:45 1024 30.24 853 25.19 23.4 74.1 37 7.9 46.3
07:50 1024 30.24 853 25.19 23.5 74.3 37 8.2 46.8
07:55 1024 30.24 853 25.19 23.7 74.6 37 8.3 46.9
08:00 1024 30.24 853 25.19 23.7 74.7 37 8.3 47
08:05 1024 30.24 853 25.19 23.7 74.6 37 8.4 47.1
08:10 1024 30.24 853 25.19 23.9 74.9 36 8.2 46.8
08:15 1024 30.24 853 25.19 24.1 75.4 36 8.3 46.9
08:20 1024 30.24 853 25.19 24.6 76.2 34 8 46.4
08:25 1024 30.24 853 25.19 25 77 33 8 46.4
08:30 1024 30.24 853 25.19 24.8 76.6 34 8 46.4
08:35 1024 30.24 853 25.19 24.3 75.7 35 8 46.3
08:40 1024 30.24 853 25.19 23.9 75.1 36 8.1 46.7
08:45 1024 30.24 853 25.19 24.1 75.3 36 8.2 46.7
08:50 1024 30.24 853 25.19 24.3 75.7 35 7.9 46.3
08:55 1024 30.24 853 25.19 24.8 76.7 32 7.3 45.2
09:00 1024 30.24 853 25.19 25.1 77.1 32 7.7 45.8
09:05 1024 30.24 853 25.19 25.5 77.9 30 6.7 44.1
09:10 1024 30.24 853 25.19 26.3 79.3 28 6.5 43.7
09:15 1024 30.24 853 25.19 26.6 79.9 28 6.8 44.3
09:20 1024 30.24 853 25.19 27.3 81.1 26 6.6 43.8
09:25 1024 30.24 853 25.19 27.8 82 26 6.7 44.1
09:30 1024 30.24 853 25.19 28 82.4 25 6.4 43.5
09:35 1024 30.24 853 25.19 28.5 83.2 25 6.8 44.3
09:40 1024 30.24 853 25.19 28 82.5 26 7.3 45.1
09:45 1024 30.24 853 25.19 27.6 81.7 27 7.3 45.1
09:50 1024 30.24 853 25.19 28 82.4 25 6.7 44
09:55 1024 30.24 853 25.19 29.1 84.3 23 5.9 42.7
10:00 1024 30.24 853 25.19 29.8 85.7 23 6.9 44.4
10:05 1024 30.24 853 25.19 30 86.1 21 5.6 42
10:10 1024 30.24 853 25.19 29.7 85.5 22 6 42.9
10:15 1024 30.24 853 25.19 30.2 86.3 22 6.2 43.2
10:20 1024 30.24 853 25.19 29.6 85.2 23 6.9 44.3
10:25 1024 30.24 853 25.19 28.3 83 26 7.1 44.7
10:30 1024 30.24 853 25.19 29.3 84.7 22 5.7 42.2
10:35 1024 30.24 853 25.19 29.7 85.5 22 6.1 43
10:40 1024 30.24 853 25.19 30.1 86.2 19 4.5 40.2
10:45 1024 30.24 853 25.19 30.5 86.9 20 5.2 41.4
10:50 1024 30.24 853 25.19 30.7 87.2 19 4.4 39.9
10:55 1023 30.21 853 25.19 31 87.9 18 4.4 40
11:00 1023 30.21 853 25.19 31.2 88.2 18 4.3 39.8
11:05 1023 30.21 853 25.19 30.8 87.4 19 5.1 41.1
11:10 1023 30.21 853 25.19 30.2 86.4 21 5.6 42.2
11:15 1023 30.21 853 25.19 29.8 85.7 23 6.5 43.7
11:20 1023 30.21 853 25.19 29.4 85 23 6.4 43.5
11:25 1023 30.21 853 25.19 29.5 85.1 21 5.4 41.8
11:30 1023 30.21 853 25.19 29.3 84.8 22 6 42.7
11:35 1023 30.21 853 25.19 29.2 84.5 23 6.2 43.2
11:40 1023 30.21 852 25.16 29.9 85.9 21 5.9 42.7
11:45 1023 30.21 852 25.16 29.8 85.6 22 5.9 42.6
11:50 1023 30.21 852 25.16 29.9 85.8 22 5.9 42.6
11:55 1023 30.21 852 25.16 30.6 87.1 21 6.1 43
12:00 1023 30.21 852 25.16 30.7 87.2 21 6.3 43.4
12:05 1023 30.21 852 25.16 31.2 88.1 20 5.9 42.5
12:10 1023 30.21 852 25.16 30.9 87.7 21 6.2 43.2
12:15 1023 30.21 852 25.16 31.6 88.8 19 5.5 41.9
12:20 1023 30.21 852 25.16 31.8 89.3 20 6.2 43.2
12:25 1023 30.21 852 25.16 31.9 89.4 17 4.5 40.1
12:30 1023 30.21 852 25.16 32.5 90.5 18 5.3 41.5
12:35 1023 30.21 852 25.16 32.9 91.2 17 4.9 40.8
12:40 1023 30.21 852 25.16 33.1 91.5 15 3.8 38.9
12:45 1023 30.21 852 25.16 32.6 90.7 17 4.9 40.9
12:50 1023 30.21 852 25.16 32.8 91 17 4.7 40.5
12:55 1023 30.21 852 25.16 33 91.4 17 4.8 40.6
13:00 1023 30.21 852 25.16 32.6 90.7 17 5.2 41.3
13:05 1023 30.21 852 25.16 33.4 92.2 16 4.5 40.1
13:10 1023 30.21 852 25.16 34.2 93.5 15 4.8 40.6
13:15 1023 30.21 852 25.16 34.1 93.3 16 5.4 41.7
13:20 1022 30.18 852 25.16 34.1 93.3 15 4.7 40.4
13:25 1022 30.18 852 25.16 33.8 92.9 17 5.7 42.2
13:30 1022 30.18 852 25.16 34.5 94.1 15 4.8 40.6
13:35 1022 30.18 852 25.16 34.1 93.4 16 5.4 41.7
13:40 1022 30.18 852 25.16 33.8 92.8 16 4.4 40
13:45 1022 30.18 851 25.13 34.1 93.3 15 4.7 40.4
13:50 1022 30.18 851 25.13 34.3 93.8 15 4.6 40.3
13:55 1022 30.18 851 25.13 34.5 94.1 13 2.5 36.5
14:00 1022 30.18 851 25.13 34.5 94.1 13 2.4 36.3
14:05 1022 30.18 851 25.13 34.5 94 13 2.6 36.7
14:10 1022 30.18 851 25.13 34.3 93.8 12 1.7 35.1
14:15 1022 30.18 851 25.13 34.3 93.8 13 2.4 36.2
14:20 1022 30.18 851 25.13 34.8 94.6 13 2.3 36.2
14:25 1022 30.18 851 25.13 35.1 95.2 12 2.4 36.3
14:30 1022 30.18 851 25.13 33.8 92.9 14 3 37.4
14:35 1022 30.18 851 25.13 34.7 94.4 13 2.5 36.5
14:40 1022 30.18 851 25.13 34.8 94.7 13 2.4 36.2
14:45 1022 30.18 851 25.13 34.6 94.2 13 2.6 36.6
14:50 1022 30.18 851 25.13 34.1 93.4 12 1.6 34.9
14:55 1022 30.18 851 25.13 34 93.3 13 1.8 35.2
15:00 1022 30.18 851 25.13 34.3 93.8 12 1.8 35.2
15:05 1022 30.18 851 25.13 34.7 94.4 13 2.3 36.1
15:10 1022 30.18 851 25.13 34.9 94.7 12 2.2 35.9
15:15 1022 30.18 851 25.13 34.6 94.4 13 2.2 36
15:20 1022 30.18 851 25.13 34.6 94.4 13 2.6 36.6
15:25 1022 30.18 851 25.13 34.8 94.6 13 2.6 36.7
15:30 1022 30.18 851 25.13 34.6 94.3 13 2.4 36.2
15:35 1022 30.18 851 25.13 34 93.2 13 2.3 36.2
15:40 1022 30.18 851 25.13 34.6 94.2 13 2.8 37.1
15:45 1022 30.18 851 25.13 34.3 93.8 13 2.1 35.7
15:50 1022 30.18 851 25.13 35 95.1 12 2.4 36.3
15:55 1022 30.18 851 25.13 34.4 93.9 13 2.6 36.7
16:00 1021 30.15 851 25.13 33.2 91.8 14 2.5 36.4
16:05 1021 30.15 851 25.13 33.4 92 13 2 35.6
16:10 1021 30.15 851 25.13 33.1 91.6 14 2.3 36.1
16:15 1021 30.15 851 25.13 33.3 91.9 14 2.2 35.9
16:20 1021 30.15 851 25.13 34.3 93.7 13 2.7 36.9
16:25 1021 30.15 851 25.13 34.6 94.2 13 3 37.4
16:30 1021 30.15 851 25.13 34.6 94.4 13 2.9 37.1
16:35 1021 30.15 851 25.13 34 93.3 14 2.9 37.2
16:40 1022 30.18 851 25.13 33.2 91.8 19 6.6 43.8
16:45 1021 30.15 851 25.13 32.2 89.9 20 6.9 44.4
16:50 1021 30.15 851 25.13 31.7 89 21 6.9 44.4
16:55 1021 30.15 851 25.13 31.3 88.3 21 6.9 44.5
17:00 1021 30.15 851 25.13 31.1 88 21 6.5 43.7
17:05 1021 30.15 851 25.13 31 87.8 21 6.7 44
17:10 1021 30.15 851 25.13 31.1 87.9 21 6.4 43.4
17:15 1021 30.15 851 25.13 31.1 87.9 21 6.5 43.7
17:20 1021 30.15 851 25.13 31.1 87.9 20 6.2 43.1
17:25 1021 30.15 851 25.13 30.8 87.5 21 6.4 43.5
17:30 1021 30.15 851 25.13 30.8 87.5 21 6.2 43.2
17:35 1021 30.15 850 25.1 30.7 87.3 22 6.9 44.5
17:40 1021 30.15 850 25.1 30.8 87.4 22 7.3 45.1
17:45 1021 30.15 850 25.1 30.9 87.6 21 6.7 44
17:50 1021 30.15 850 25.1 30.6 87 22 6.6 43.8
17:55 1021 30.15 850 25.1 30.3 86.5 22 6.6 43.8
18:00 1021 30.15 850 25.1 30.2 86.4 22 6.6 43.9
18:05 1021 30.15 850 25.1 30.2 86.4 22 6.7 44
18:10 1021 30.15 850 25.1 30.2 86.3 22 6.6 43.9
18:15 1021 30.15 850 25.1 30.2 86.3 22 6.7 44.1
18:20 1021 30.15 850 25.1 30.2 86.4 22 6.2 43.2
18:25 1021 30.15 850 25.1 30.2 86.4 22 6.8 44.2
18:30 1021 30.15 850 25.1 30.3 86.5 22 6.7 44.1
18:35 1021 30.15 850 25.1 30.1 86.1 22 6.3 43.4
18:40 1021 30.15 850 25.1 30 85.9 22 6.5 43.7
18:45 1021 30.15 850 25.1 29.9 85.8 23 6.7 44.1
18:50 1021 30.15 850 25.1 29.8 85.7 22 6.4 43.5
18:55 1021 30.15 850 25.1 29.7 85.4 23 6.8 44.2
19:00 1021 30.15 851 25.13 29.6 85.2 24 7 44.7
19:05 1021 30.15 851 25.13 29.4 84.9 24 7.1 44.8
19:10 1021 30.15 851 25.13 29.3 84.7 25 7.4 45.3
19:15 1021 30.15 851 25.13 29.1 84.4 25 7.4 45.4
19:20 1021 30.15 851 25.13 29.1 84.3 24 6.9 44.5
19:25 1021 30.15 851 25.13 29 84.2 25 7.6 45.6
19:30 1021 30.15 851 25.13 28.8 83.8 25 7.1 44.8
19:35 1021 30.15 851 25.13 28.9 83.9 25 7.2 45
19:40 1022 30.18 851 25.13 28.7 83.6 25 7 44.6
19:45 1022 30.18 851 25.13 28.5 83.2 26 7.3 45.1
19:50 1022 30.18 851 25.13 28.1 82.6 26 7.3 45.2
19:55 1022 30.18 851 25.13 27.8 82.1 27 7.2 45
20:00 1022 30.18 851 25.13 27.6 81.6 27 7.4 45.2
20:05 1022 30.18 851 25.13 27.3 81.2 27 7 44.7
20:10 1022 30.18 851 25.13 27.2 81 27 7 44.6
20:15 1022 30.18 851 25.13 27 80.5 27 6.7 44.1
20:20 1022 30.18 851 25.13 26.8 80.3 27 6.8 44.2
20:25 1022 30.18 851 25.13 26.7 80.1 27 6.7 44
20:30 1022 30.18 851 25.13 26.7 80.1 27 6.7 44
20:35 1022 30.18 851 25.13 26.7 80 28 6.9 44.5
20:40 1022 30.18 851 25.13 26.6 79.9 28 7.1 44.8
20:45 1022 30.18 851 25.13 26.4 79.5 29 7.4 45.2
20:50 1022 30.18 851 25.13 26.2 79.1 30 7.3 45.2
20:55 1022 30.18 851 25.13 26.2 79.2 30 7.4 45.3
21:00 1022 30.18 851 25.13 26.3 79.3 30 7.4 45.3
21:05 1022 30.18 852 25.16 26.4 79.5 30 7.6 45.7
21:10 1022 30.18 852 25.16 26.3 79.4 30 7.5 45.4
21:15 1022 30.18 852 25.16 26.4 79.5 30 7.6 45.7
21:20 1022 30.18 852 25.16 26.2 79.1 30 7.6 45.7
21:25 1022 30.18 852 25.16 26.1 78.9 30 7.6 45.7
21:30 1022 30.18 852 25.16 26.1 78.9 31 7.7 45.8
21:35 1022 30.18 852 25.16 25.9 78.6 31 7.7 45.8
21:40 1022 30.18 852 25.16 25.8 78.5 31 7.4 45.4
21:45 1022 30.18 852 25.16 25.9 78.7 31 7.6 45.6
21:50 1022 30.18 852 25.16 25.9 78.6 30 7.3 45.2
21:55 1023 30.21 852 25.16 26 78.8 29 7.1 44.8
22:00 1023 30.21 852 25.16 26.1 79 30 7.5 45.4
22:05 1023 30.21 852 25.16 25.9 78.6 31 7.5 45.5
22:10 1023 30.21 852 25.16 25.7 78.3 30 7.2 45
22:15 1023 30.21 852 25.16 25.8 78.4 30 7.3 45.2
22:20 1023 30.21 852 25.16 25.8 78.4 31 7.4 45.3
22:25 1023 30.21 852 25.16 25.6 78.1 31 7.5 45.5
22:30 1023 30.21 852 25.16 25.4 77.7 31 7.5 45.4
22:35 1023 30.21 852 25.16 25.3 77.5 31 7.4 45.3
22:40 1022 30.18 852 25.16 25.2 77.4 32 7.5 45.4
22:45 1022 30.18 852 25.16 25.1 77.3 32 7.5 45.4
22:50 1022 30.18 852 25.16 25 77 32 7.4 45.3
22:55 1023 30.21 852 25.16 25 77 32 7.3 45.2
23:00 1023 30.21 852 25.16 25 76.9 32 7.4 45.3
23:05 1023 30.21 852 25.16 25 77.1 32 7.3 45.1
23:10 1023 30.21 852 25.16 25.1 77.1 32 7.4 45.3
23:15 1023 30.21 852 25.16 25 77.1 32 7.3 45.1
23:20 1023 30.21 852 25.16 25 77 32 7.5 45.5
23:25 1023 30.21 852 25.16 24.6 76.4 33 7.7 45.8
23:30 1023 30.21 852 25.16 24.5 76.1 33 7.3 45.2
23:35 1023 30.21 852 25.16 24.6 76.2 32 7.1 44.9
23:40 1023 30.21 852 25.16 24.7 76.5 32 7.2 44.9
23:45 1023 30.21 852 25.16 24.8 76.6 32 7.3 45.1
23:50 1022 30.18 852 25.16 24.6 76.3 32 7.2 45
23:55 1022 30.18 852 25.16 24.5 76 33 7.3 45.2
24:00 1022 30.18 852 25.16 24.3 75.8 33 7.2 45